Time;durP1;ratioP1;P1;durP2;ratioP2;P2;SDS_P1;SDS_P2;PMS_P1;PMS_P2;Temp;Humidity;BMP_temperature;BMP_pressure;BME280_temperature;BME280_humidity;BME280_pressure;Samples;Min_cycle;Max_cycle;Signal;HPM_P1;HPM_P2
2023/08/14 00:00:52;;;;;;;7.88;3.60;;;23.30;99.90;;;;;;5035656;28;20045;-78
2023/08/14 00:03:22;;;;;;;7.40;3.10;;;23.30;99.90;;;;;;5034765;28;20057;-77
2023/08/14 00:05:49;;;;;;;4.13;2.95;;;23.30;99.90;;;;;;5046330;28;20091;-79
2023/08/14 00:08:15;;;;;;;3.35;2.00;;;23.30;99.90;;;;;;5044778;28;20492;-78
2023/08/14 00:10:42;;;;;;;3.67;2.30;;;23.30;99.90;;;;;;5048413;28;20056;-80
2023/08/14 00:13:09;;;;;;;4.40;2.00;;;23.20;99.90;;;;;;5042673;28;20115;-78
2023/08/14 00:15:36;;;;;;;3.00;1.50;;;23.20;99.90;;;;;;5049409;28;20091;-78
2023/08/14 00:18:04;;;;;;;2.67;1.73;;;23.10;99.90;;;;;;5041804;28;20080;-78
2023/08/14 00:20:31;;;;;;;5.30;1.67;;;23.10;99.90;;;;;;5045926;28;20046;-78
2023/08/14 00:22:58;;;;;;;4.32;1.67;;;23.10;99.90;;;;;;5037037;28;20037;-78
2023/08/14 00:25:25;;;;;;;3.60;1.70;;;23.10;99.90;;;;;;5049959;28;20103;-79
2023/08/14 00:27:53;;;;;;;3.45;1.70;;;23.00;99.90;;;;;;5036292;28;20041;-79
2023/08/14 00:30:19;;;;;;;3.80;1.80;;;23.10;99.90;;;;;;5049589;28;20060;-78
2023/08/14 00:32:46;;;;;;;3.83;1.63;;;23.10;99.90;;;;;;5037215;28;20111;-79
2023/08/14 00:35:13;;;;;;;5.43;3.20;;;23.10;99.90;;;;;;5045366;28;20137;-80
2023/08/14 00:37:48;;;;;;;3.22;1.83;;;23.10;99.90;;;;;;5048852;28;20099;-78
2023/08/14 00:40:16;;;;;;;2.88;1.77;;;23.10;99.90;;;;;;5048699;28;20053;-78
2023/08/14 00:42:47;;;;;;;6.68;2.55;;;23.10;99.90;;;;;;5043703;28;20041;-79
2023/08/14 00:45:15;;;;;;;5.63;2.05;;;23.10;99.90;;;;;;5047196;28;20140;-79
2023/08/14 00:47:45;;;;;;;2.33;1.80;;;23.10;99.90;;;;;;5041600;28;20045;-79
2023/08/14 00:50:14;;;;;;;4.20;2.58;;;23.10;99.90;;;;;;5043704;28;20140;-78
2023/08/14 00:52:46;;;;;;;2.30;1.80;;;23.00;99.90;;;;;;5049948;28;20110;-78
2023/08/14 00:55:17;;;;;;;4.68;2.03;;;23.00;99.90;;;;;;5031688;28;20053;-78
2023/08/14 00:57:44;;;;;;;3.17;1.75;;;23.10;99.90;;;;;;5042991;28;20112;-79
2023/08/14 01:00:12;;;;;;;3.20;1.85;;;23.00;99.90;;;;;;5036690;28;20049;-79
2023/08/14 01:02:41;;;;;;;6.10;2.30;;;23.00;99.90;;;;;;5036322;28;20076;-79
2023/08/14 01:05:08;;;;;;;3.47;2.00;;;23.00;99.90;;;;;;5037489;28;20056;-80
2023/08/14 01:07:35;;;;;;;1.98;1.80;;;23.00;99.90;;;;;;5037077;28;20049;-78
2023/08/14 01:10:03;;;;;;;4.68;2.10;;;23.00;99.90;;;;;;5049748;28;20049;-79
2023/08/14 01:12:57;;;;;;;5.82;2.83;;;23.00;99.90;;;;;;5043592;28;20072;-79
2023/08/14 01:15:38;;;;;;;3.60;2.63;;;23.00;99.90;;;;;;5028665;28;20050;-79
2023/08/14 01:18:05;;;;;;;4.38;2.42;;;23.00;99.90;;;;;;5034367;28;20108;-78
2023/08/14 01:20:35;;;;;;;3.03;2.40;;;23.00;99.90;;;;;;5050249;28;20051;-79
2023/08/14 01:23:52;;;;;;;3.03;2.58;;;23.00;99.90;;;;;;5047716;28;20447;-78
2023/08/14 01:26:19;;;;;;;6.78;2.63;;;23.00;99.90;;;;;;4967841;28;20054;-78
2023/08/14 01:28:46;;;;;;;5.20;3.15;;;23.00;99.90;;;;;;4969942;28;20085;-77
2023/08/14 01:31:13;;;;;;;4.00;2.90;;;22.90;99.90;;;;;;5011417;28;20122;-78
2023/08/14 01:33:40;;;;;;;8.10;3.15;;;23.00;99.90;;;;;;5040815;28;20098;-79
2023/08/14 01:36:20;;;;;;;7.05;2.92;;;22.90;99.90;;;;;;5049350;28;20065;-78
2023/08/14 01:38:53;;;;;;;;;;;23.00;99.90;;;;;;5050925;28;20044;-79
2023/08/14 01:41:30;;;;;;;6.35;2.47;;;23.00;99.90;;;;;;5042001;28;19944;-78
2023/08/14 01:43:59;;;;;;;4.90;2.70;;;23.00;99.90;;;;;;5047787;28;20055;-77
2023/08/14 01:46:27;;;;;;;5.13;2.88;;;23.00;99.90;;;;;;5044439;28;20045;-78
2023/08/14 01:48:56;;;;;;;4.13;3.22;;;23.00;99.90;;;;;;5037267;28;20051;-80
2023/08/14 01:51:24;;;;;;;6.85;3.20;;;23.00;99.90;;;;;;5045219;28;20065;-78
2023/08/14 01:53:50;;;;;;;6.90;2.42;;;23.00;99.90;;;;;;5048995;28;20041;-79
2023/08/14 01:56:17;;;;;;;5.85;3.10;;;23.10;99.90;;;;;;5041164;28;20056;-77
2023/08/14 01:58:44;;;;;;;6.13;3.05;;;23.10;99.90;;;;;;5044083;28;20111;-79
2023/08/14 02:01:11;;;;;;;3.90;2.80;;;23.10;99.90;;;;;;5027080;28;20558;-78
2023/08/14 02:03:37;;;;;;;5.50;3.35;;;23.10;99.90;;;;;;5029471;28;20144;-78
2023/08/14 02:06:04;;;;;;;6.10;3.53;;;23.10;99.90;;;;;;5036239;28;20053;-78
2023/08/14 02:08:31;;;;;;;10.68;4.95;;;23.10;99.90;;;;;;5048026;28;20041;-78
2023/08/14 02:10:58;;;;;;;6.47;4.70;;;23.00;99.90;;;;;;5037080;28;20049;-79
2023/08/14 02:13:25;;;;;;;10.13;6.47;;;23.00;99.90;;;;;;5040752;28;20436;-78
2023/08/14 02:15:52;;;;;;;9.73;6.82;;;23.00;99.90;;;;;;5046180;28;20045;-78
2023/08/14 02:18:19;;;;;;;7.35;5.10;;;23.00;99.90;;;;;;5046321;28;20049;-78
2023/08/14 02:20:48;;;;;;;6.75;5.32;;;22.90;99.90;;;;;;5047055;28;20581;-78
2023/08/14 02:23:14;;;;;;;8.48;6.03;;;22.90;99.90;;;;;;5029264;28;20520;-78
2023/08/14 02:25:42;;;;;;;7.25;6.18;;;22.80;99.90;;;;;;5045540;28;20103;-79
2023/08/14 02:28:09;;;;;;;6.72;5.50;;;22.80;99.90;;;;;;5041016;28;20049;-78
2023/08/14 02:30:41;;;;;;;8.52;6.45;;;22.80;99.90;;;;;;5048473;28;20455;-78
2023/08/14 02:33:08;;;;;;;6.15;5.00;;;22.80;99.90;;;;;;5053341;28;20049;-78
2023/08/14 02:35:35;;;;;;;8.18;4.97;;;22.80;99.90;;;;;;5041834;28;20049;-77
2023/08/14 02:38:05;;;;;;;5.97;5.38;;;22.80;99.90;;;;;;5034738;28;20045;-79
2023/08/14 02:40:32;;;;;;;6.40;4.97;;;22.80;99.90;;;;;;5048415;28;20045;-78
2023/08/14 02:43:00;;;;;;;9.57;5.70;;;22.80;99.90;;;;;;5048706;28;20041;-77
2023/08/14 02:45:28;;;;;;;6.00;4.72;;;22.80;99.90;;;;;;5051661;28;20045;-78
2023/08/14 02:47:55;;;;;;;9.68;5.32;;;22.80;99.90;;;;;;5053698;28;20041;-79
2023/08/14 02:50:22;;;;;;;7.55;5.55;;;22.80;99.90;;;;;;5047380;28;20045;-79
2023/08/14 02:52:49;;;;;;;5.43;4.93;;;22.80;99.90;;;;;;5050539;28;20041;-79
2023/08/14 02:55:16;;;;;;;6.78;5.13;;;22.80;99.90;;;;;;5048458;28;20683;-79
2023/08/14 02:57:43;;;;;;;9.30;6.00;;;22.80;99.90;;;;;;5048315;28;20040;-79
2023/08/14 03:00:10;;;;;;;6.70;5.45;;;22.80;99.90;;;;;;5051362;28;20052;-80
2023/08/14 03:02:37;;;;;;;14.15;7.53;;;22.80;99.90;;;;;;5055880;28;20044;-78
2023/08/14 03:05:04;;;;;;;12.48;9.25;;;22.80;99.90;;;;;;5043979;28;20041;-78
2023/08/14 03:07:31;;;;;;;11.80;10.15;;;22.80;99.90;;;;;;5046850;28;20966;-79
2023/08/14 03:09:57;;;;;;;12.60;8.57;;;22.80;99.90;;;;;;5048732;28;20044;-78
2023/08/14 03:12:24;;;;;;;9.32;8.35;;;22.70;99.90;;;;;;5024233;28;20053;-79
2023/08/14 03:14:51;;;;;;;11.23;7.65;;;22.60;99.90;;;;;;5054151;28;20044;-79
2023/08/14 03:17:17;;;;;;;8.98;6.82;;;22.60;99.90;;;;;;5040859;28;20053;-80
2023/08/14 03:19:44;;;;;;;9.77;7.13;;;22.50;99.90;;;;;;5048394;28;20060;-80
2023/08/14 03:22:11;;;;;;;10.38;7.53;;;22.50;99.90;;;;;;5038012;28;20048;-79
2023/08/14 03:24:38;;;;;;;12.60;8.30;;;22.50;99.90;;;;;;5038776;28;20045;-78
2023/08/14 03:27:05;;;;;;;11.25;8.05;;;22.40;99.90;;;;;;5023995;28;20053;-79
2023/08/14 03:29:32;;;;;;;15.57;7.30;;;22.30;99.90;;;;;;5051064;28;20049;-79
2023/08/14 03:31:58;;;;;;;5.90;5.18;;;22.30;99.90;;;;;;5040055;28;20049;-79
2023/08/14 03:34:25;;;;;;;10.02;5.50;;;22.30;99.90;;;;;;5048502;28;20049;-79
2023/08/14 03:36:52;;;;;;;7.75;4.85;;;22.30;99.90;;;;;;5046368;28;20094;-79
2023/08/14 03:39:18;;;;;;;7.20;5.18;;;22.20;99.90;;;;;;5048812;28;20056;-80
2023/08/14 03:41:45;;;;;;;6.35;5.10;;;22.20;99.90;;;;;;5041329;28;20045;-78
2023/08/14 03:44:12;;;;;;;6.43;4.65;;;22.10;99.90;;;;;;5044253;28;20048;-77
2023/08/14 03:46:39;;;;;;;8.65;4.60;;;22.20;99.90;;;;;;5049034;28;20052;-77
2023/08/14 03:49:05;;;;;;;6.22;5.63;;;22.20;99.90;;;;;;5046094;28;20049;-78
2023/08/14 03:51:32;;;;;;;8.18;5.13;;;22.20;99.90;;;;;;5034903;28;20509;-80
2023/08/14 03:53:59;;;;;;;10.27;5.35;;;22.20;99.90;;;;;;5036084;28;20056;-78
2023/08/14 03:56:26;;;;;;;8.50;5.22;;;22.20;99.90;;;;;;5039941;28;20573;-79
2023/08/14 03:58:52;;;;;;;9.65;5.93;;;22.20;99.90;;;;;;5029629;28;20061;-78
2023/08/14 04:01:20;;;;;;;10.38;6.18;;;22.10;99.90;;;;;;5036279;28;20115;-78
2023/08/14 04:03:46;;;;;;;10.00;7.03;;;22.10;99.90;;;;;;5044777;28;20041;-78
2023/08/14 04:06:13;;;;;;;8.60;6.53;;;22.20;99.90;;;;;;5044663;28;20187;-78
2023/08/14 04:08:40;;;;;;;10.32;6.68;;;22.10;99.90;;;;;;5046716;28;20060;-78
2023/08/14 04:11:07;;;;;;;8.45;7.18;;;22.10;99.90;;;;;;5037076;28;20112;-77
2023/08/14 04:13:33;;;;;;;8.90;6.68;;;22.10;99.90;;;;;;5046672;28;20049;-77
2023/08/14 04:16:00;;;;;;;9.60;7.60;;;22.10;99.90;;;;;;5046594;28;20045;-78
2023/08/14 04:18:28;;;;;;;10.18;6.85;;;22.10;99.90;;;;;;5045306;28;20447;-77
2023/08/14 04:20:55;;;;;;;7.45;6.75;;;22.00;99.90;;;;;;5034518;28;20047;-77
2023/08/14 04:23:24;;;;;;;11.63;7.82;;;22.10;99.90;;;;;;5046328;28;20052;-78
2023/08/14 04:25:52;;;;;;;10.68;6.82;;;22.00;99.90;;;;;;5042206;28;20459;-78
2023/08/14 04:28:19;;;;;;;10.45;7.70;;;22.00;99.90;;;;;;5050087;28;20072;-78
2023/08/14 04:30:46;;;;;;;10.07;6.63;;;22.00;99.90;;;;;;5043276;28;20528;-78
2023/08/14 04:33:12;;;;;;;11.73;6.90;;;22.00;99.90;;;;;;5034396;28;20056;-77
2023/08/14 04:35:40;;;;;;;10.82;6.35;;;21.90;99.90;;;;;;5039715;28;20095;-78
2023/08/14 04:38:06;;;;;;;10.02;6.97;;;21.90;99.90;;;;;;5044658;28;20045;-77
2023/08/14 04:40:33;;;;;;;10.50;7.25;;;21.90;99.90;;;;;;5047018;28;20095;-77
2023/08/14 04:43:00;;;;;;;8.30;6.28;;;21.90;99.90;;;;;;5041390;28;20041;-77
2023/08/14 04:45:27;;;;;;;8.32;6.50;;;21.90;99.90;;;;;;5043643;28;20049;-79
2023/08/14 04:47:53;;;;;;;8.98;6.18;;;21.90;99.90;;;;;;5046093;28;20053;-79
2023/08/14 04:50:23;;;;;;;14.47;6.17;;;21.90;99.90;;;;;;5033397;28;20532;-78
2023/08/14 04:52:50;;;;;;;11.40;6.43;;;21.90;99.90;;;;;;5035271;28;20050;-78
2023/08/14 04:55:16;;;;;;;10.50;6.20;;;21.80;99.90;;;;;;5047569;28;20057;-78
2023/08/14 04:57:43;;;;;;;8.30;6.85;;;21.90;99.90;;;;;;5048306;28;20460;-78
2023/08/14 05:00:11;;;;;;;9.70;6.85;;;21.80;99.90;;;;;;5027089;28;20056;-77
2023/08/14 05:02:38;;;;;;;9.25;6.93;;;21.90;99.90;;;;;;5043879;28;20056;-77
2023/08/14 05:05:05;;;;;;;7.97;5.93;;;21.90;99.90;;;;;;5038649;28;20864;-78
2023/08/14 05:07:32;;;;;;;10.05;5.53;;;21.90;99.90;;;;;;5040971;28;20484;-78
2023/08/14 05:09:59;;;;;;;8.45;6.10;;;21.90;99.90;;;;;;5049282;28;20040;-78
2023/08/14 05:12:26;;;;;;;10.60;6.38;;;21.90;99.90;;;;;;5044416;28;20493;-78
2023/08/14 05:14:53;;;;;;;11.32;6.00;;;22.00;99.90;;;;;;5042363;28;20099;-77
2023/08/14 05:17:20;;;;;;;8.45;5.43;;;22.00;99.90;;;;;;5033997;28;20119;-77
2023/08/14 05:19:47;;;;;;;7.95;6.13;;;22.00;99.90;;;;;;5033499;28;20576;-79
2023/08/14 05:22:14;;;;;;;7.57;6.07;;;22.10;99.90;;;;;;5026980;28;20492;-78
2023/08/14 05:24:41;;;;;;;11.20;5.10;;;22.10;99.90;;;;;;5047010;28;20053;-78
2023/08/14 05:27:07;;;;;;;8.95;5.18;;;22.10;99.90;;;;;;5046128;28;20044;-78
2023/08/14 05:29:34;;;;;;;6.03;4.57;;;22.20;99.90;;;;;;5040148;28;20053;-79
2023/08/14 05:32:01;;;;;;;8.23;5.63;;;22.20;99.90;;;;;;5045920;28;20049;-79
2023/08/14 05:34:27;;;;;;;10.95;5.63;;;22.20;99.90;;;;;;5044571;28;20057;-77
2023/08/14 05:36:54;;;;;;;7.65;6.00;;;22.20;99.90;;;;;;5035295;28;20049;-78
2023/08/14 05:39:21;;;;;;;7.30;5.28;;;22.20;99.90;;;;;;5046330;28;20187;-78
2023/08/14 05:41:49;;;;;;;6.85;5.75;;;22.20;99.90;;;;;;5033686;28;20076;-77
2023/08/14 05:44:17;;;;;;;8.98;6.38;;;22.30;99.90;;;;;;5031020;28;20049;-79
2023/08/14 05:46:44;;;;;;;13.13;7.90;;;22.20;99.90;;;;;;5043583;28;20041;-78
2023/08/14 05:49:15;;;;;;;9.82;8.48;;;22.30;99.90;;;;;;5041771;28;20140;-78
2023/08/14 05:51:41;;;;;;;10.05;9.02;;;22.20;99.90;;;;;;5039114;28;20424;-77
2023/08/14 05:54:08;;;;;;;14.27;9.63;;;22.20;99.90;;;;;;5045924;28;20110;-78
2023/08/14 05:56:35;;;;;;;12.95;9.98;;;22.20;99.90;;;;;;5045383;28;20053;-78
2023/08/14 05:59:02;;;;;;;22.40;10.55;;;22.30;99.90;;;;;;5040352;28;20068;-78
2023/08/14 06:01:29;;;;;;;17.13;10.15;;;22.30;99.90;;;;;;5042673;28;20042;-78
2023/08/14 06:03:55;;;;;;;12.35;10.10;;;22.30;99.90;;;;;;5041755;28;20366;-80
2023/08/14 06:06:22;;;;;;;12.32;9.13;;;22.40;99.90;;;;;;5022035;28;20080;-78
2023/08/14 06:08:49;;;;;;;15.40;9.05;;;22.40;99.90;;;;;;5045744;28;20420;-79
2023/08/14 06:11:16;;;;;;;13.10;10.05;;;22.50;99.90;;;;;;5047901;28;20109;-79
2023/08/14 06:13:43;;;;;;;13.82;9.05;;;22.60;99.90;;;;;;5043530;28;20048;-77
2023/08/14 06:16:11;;;;;;;10.75;9.65;;;22.60;99.90;;;;;;5049160;28;20045;-79
2023/08/14 06:18:38;;;;;;;9.68;8.13;;;22.70;99.90;;;;;;5043028;28;20059;-79
2023/08/14 06:21:05;;;;;;;9.10;7.78;;;22.70;99.90;;;;;;5050730;28;20037;-77
2023/08/14 06:23:32;;;;;;;12.43;8.65;;;22.80;99.90;;;;;;5050228;28;20091;-77
2023/08/14 06:25:58;;;;;;;13.05;8.27;;;22.90;99.90;;;;;;5048132;28;20049;-78
2023/08/14 06:28:25;;;;;;;12.18;8.23;;;22.90;99.90;;;;;;5045487;28;20041;-78
2023/08/14 06:30:52;;;;;;;13.45;7.85;;;23.00;99.90;;;;;;5047457;28;20094;-78
2023/08/14 06:33:19;;;;;;;10.40;9.32;;;23.10;99.90;;;;;;5027572;28;20056;-78
2023/08/14 06:35:45;;;;;;;10.90;9.82;;;23.00;99.90;;;;;;5047924;28;20080;-78
2023/08/14 06:38:12;;;;;;;9.93;8.93;;;23.10;99.90;;;;;;5030963;28;20072;-78
2023/08/14 06:40:39;;;;;;;10.45;8.70;;;23.10;99.90;;;;;;5047636;28;20083;-78
2023/08/14 06:43:06;;;;;;;13.93;9.57;;;23.20;99.90;;;;;;5043540;28;20041;-78
2023/08/14 06:45:33;;;;;;;11.27;8.98;;;23.20;99.90;;;;;;5044549;28;20046;-78
2023/08/14 06:48:00;;;;;;;10.70;9.35;;;23.30;99.90;;;;;;5047777;28;20075;-80
2023/08/14 06:50:27;;;;;;;8.88;7.97;;;23.30;99.90;;;;;;5036373;28;20048;-79
2023/08/14 06:52:54;;;;;;;10.38;9.20;;;23.30;99.90;;;;;;5037221;28;20041;-78
2023/08/14 06:55:21;;;;;;;9.65;8.60;;;23.40;99.90;;;;;;5046687;28;20606;-77
2023/08/14 06:57:48;;;;;;;15.07;10.32;;;23.40;99.90;;;;;;5043370;28;20111;-77
2023/08/14 07:00:15;;;;;;;18.05;10.38;;;23.50;99.90;;;;;;5042239;28;20041;-77
2023/08/14 07:02:43;;;;;;;13.52;10.60;;;23.50;99.90;;;;;;5032773;28;20075;-77
2023/08/14 07:05:10;;;;;;;12.27;9.50;;;23.40;99.90;;;;;;5050314;28;20091;-78
2023/08/14 07:07:38;;;;;;;11.00;8.85;;;23.40;99.90;;;;;;5022059;28;20046;-78
2023/08/14 07:10:06;;;;;;;12.25;10.32;;;23.40;99.90;;;;;;5035156;28;20045;-78
2023/08/14 07:12:32;;;;;;;11.70;10.60;;;23.50;99.90;;;;;;5039690;28;20053;-77
2023/08/14 07:15:02;;;;;;;23.45;11.82;;;23.50;99.90;;;;;;5036899;28;20083;-78
2023/08/14 07:17:32;;;;;;;11.80;10.15;;;23.50;99.90;;;;;;5045409;28;20130;-77
2023/08/14 07:19:59;;;;;;;14.23;11.25;;;23.50;99.90;;;;;;5049402;28;20091;-78
2023/08/14 07:22:25;;;;;;;11.68;10.48;;;23.50;99.90;;;;;;5032012;28;20041;-78
2023/08/14 07:24:52;;;;;;;11.55;10.07;;;23.60;99.90;;;;;;5033159;28;20049;-77
2023/08/14 07:27:19;;;;;;;11.23;10.13;;;23.60;99.90;;;;;;5040087;28;20103;-77
2023/08/14 07:29:49;;;;;;;12.57;11.38;;;23.70;99.90;;;;;;5037014;28;20052;-77
2023/08/14 07:32:16;;;;;;;15.82;12.93;;;23.70;99.90;;;;;;5046791;28;20064;-77
2023/08/14 07:34:44;;;;;;;14.55;12.68;;;23.60;99.90;;;;;;5049751;28;20044;-79
2023/08/14 07:37:10;;;;;;;12.95;11.43;;;23.60;99.90;;;;;;5044648;28;20536;-77
2023/08/14 07:39:37;;;;;;;12.63;11.32;;;23.60;99.90;;;;;;5049126;28;20569;-77
2023/08/14 07:42:04;;;;;;;13.15;11.75;;;23.60;99.90;;;;;;5032819;28;20042;-76
2023/08/14 07:44:30;;;;;;;14.93;12.00;;;23.70;99.90;;;;;;5041529;28;20041;-77
2023/08/14 07:47:00;;;;;;;12.45;10.90;;;23.80;99.90;;;;;;5031225;28;20099;-78
2023/08/14 07:49:27;;;;;;;13.20;10.43;;;23.90;99.90;;;;;;5045873;28;20042;-76
2023/08/14 07:51:53;;;;;;;11.27;10.20;;;23.90;99.90;;;;;;5038598;28;20049;-77
2023/08/14 07:54:20;;;;;;;11.90;9.43;;;24.00;99.90;;;;;;5042103;28;20052;-76
2023/08/14 07:56:47;;;;;;;13.38;9.60;;;24.10;99.90;;;;;;5048799;28;20050;-77
2023/08/14 07:59:16;;;;;;;9.88;8.40;;;24.20;99.90;;;;;;5046331;28;20075;-76
2023/08/14 08:01:43;;;;;;;9.50;7.63;;;24.20;99.90;;;;;;5048454;28;20064;-78
2023/08/14 08:04:10;;;;;;;9.90;7.72;;;24.20;99.90;;;;;;5047056;28;21306;-77
2023/08/14 08:06:52;;;;;;;8.82;7.40;;;24.20;99.90;;;;;;5045100;28;20048;-78
2023/08/14 08:09:18;;;;;;;9.70;6.85;;;24.30;99.90;;;;;;5049524;28;20049;-77
2023/08/14 08:11:45;;;;;;;9.00;7.95;;;24.40;99.90;;;;;;5054904;28;20055;-77
2023/08/14 08:14:12;;;;;;;9.02;8.02;;;24.50;99.90;;;;;;5047797;28;20096;-76
2023/08/14 08:16:39;;;;;;;11.25;7.75;;;24.60;99.90;;;;;;5052060;28;20053;-77
2023/08/14 08:19:07;;;;;;;9.88;7.63;;;24.70;99.90;;;;;;5054972;28;20508;-77
2023/08/14 08:21:33;;;;;;;8.45;7.60;;;24.70;99.90;;;;;;5056202;28;20044;-76
2023/08/14 08:24:00;;;;;;;7.80;6.38;;;24.70;99.90;;;;;;5058603;28;20044;-77
2023/08/14 08:26:27;;;;;;;9.57;7.72;;;24.70;99.90;;;;;;5039393;28;20038;-78
2023/08/14 08:28:54;;;;;;;10.38;7.40;;;24.80;99.90;;;;;;5035224;28;20470;-76
2023/08/14 08:31:21;;;;;;;9.77;7.55;;;24.80;99.90;;;;;;5050795;28;20124;-77
2023/08/14 08:33:48;;;;;;;9.93;7.43;;;24.80;99.90;;;;;;5048898;28;20118;-77
2023/08/14 08:36:18;;;;;;;10.82;6.97;;;24.80;99.90;;;;;;5052925;28;20045;-77
2023/08/14 08:38:45;;;;;;;10.32;6.97;;;24.80;99.90;;;;;;5049970;28;20512;-77
2023/08/14 08:41:14;;;;;;;12.45;7.80;;;24.90;99.90;;;;;;5041285;28;20056;-77
2023/08/14 08:43:41;;;;;;;7.75;6.90;;;24.90;99.90;;;;;;5052819;28;20064;-77
2023/08/14 08:46:09;;;;;;;7.88;6.35;;;24.90;99.90;;;;;;5051523;28;20045;-78
2023/08/14 08:48:40;;;;;;;11.48;6.72;;;24.90;99.90;;;;;;5051745;28;20129;-78
2023/08/14 08:51:08;;;;;;;9.07;6.80;;;24.90;99.90;;;;;;5051357;28;20045;-78
2023/08/14 08:53:37;;;;;;;7.68;6.57;;;25.00;99.90;;;;;;5040196;28;20056;-77
2023/08/14 08:56:04;;;;;;;6.82;5.32;;;25.00;99.90;;;;;;5035375;28;20080;-77
2023/08/14 08:58:31;;;;;;;7.93;6.30;;;25.10;99.90;;;;;;5037333;28;20049;-78
2023/08/14 09:00:59;;;;;;;7.32;5.35;;;25.20;99.90;;;;;;5050453;28;20045;-77
2023/08/14 09:03:26;;;;;;;7.75;4.65;;;25.20;99.90;;;;;;5056276;28;20045;-78
2023/08/14 09:05:53;;;;;;;6.95;5.15;;;25.30;99.90;;;;;;5048468;28;20041;-77
2023/08/14 09:08:20;;;;;;;8.27;4.85;;;25.40;99.90;;;;;;5050192;28;20071;-78
2023/08/14 09:10:46;;;;;;;8.73;5.45;;;25.50;99.90;;;;;;5053238;28;20064;-78
2023/08/14 09:13:14;;;;;;;9.00;6.63;;;25.60;99.90;;;;;;5055773;28;20563;-79
2023/08/14 09:15:42;;;;;;;9.23;6.32;;;25.70;99.90;;;;;;5047405;28;20061;-77
2023/08/14 09:18:10;;;;;;;8.80;6.68;;;25.80;99.90;;;;;;5051326;28;20132;-78
2023/08/14 09:20:39;;;;;;;9.55;5.97;;;25.90;99.90;;;;;;5050576;28;20045;-78
2023/08/14 09:23:12;;;;;;;10.20;7.18;;;25.90;99.90;;;;;;5043034;28;20065;-78
2023/08/14 09:25:45;;;;;;;10.75;6.95;;;26.00;99.90;;;;;;5052272;28;20486;-78
2023/08/14 09:28:12;;;;;;;9.40;6.78;;;26.10;99.90;;;;;;5054104;28;20049;-78
2023/08/14 09:30:40;;;;;;;8.40;6.05;;;26.10;99.90;;;;;;5045787;28;20053;-79
2023/08/14 09:33:10;;;;;;;9.82;6.38;;;26.30;99.90;;;;;;5049097;28;20780;-78
2023/08/14 09:35:39;;;;;;;7.03;5.10;;;26.30;99.90;;;;;;5033547;28;20115;-78
2023/08/14 09:38:06;;;;;;;7.97;5.40;;;26.40;99.90;;;;;;5040927;28;20049;-78
2023/08/14 09:40:33;;;;;;;9.02;5.57;;;26.50;99.90;;;;;;5049519;28;20041;-78
2023/08/14 09:43:00;;;;;;;7.05;4.70;;;26.60;99.90;;;;;;5052768;28;20044;-78
2023/08/14 09:45:28;;;;;;;5.60;4.68;;;26.70;99.90;;;;;;5046518;28;20051;-79
2023/08/14 09:48:00;;;;;;;9.57;5.20;;;26.80;99.90;;;;;;5030743;28;20041;-78
2023/08/14 09:50:28;;;;;;;8.70;4.80;;;26.80;99.90;;;;;;5047619;28;20047;-78
2023/08/14 09:52:57;;;;;;;8.52;5.30;;;26.90;99.90;;;;;;5049420;28;20053;-77
2023/08/14 09:55:28;;;;;;;7.90;4.70;;;27.00;99.90;;;;;;5049943;28;20044;-78
2023/08/14 09:57:56;;;;;;;5.55;4.82;;;27.00;99.90;;;;;;5035811;28;20041;-78
2023/08/14 10:00:30;;;;;;;7.25;4.28;;;27.10;99.90;;;;;;5045920;28;20569;-77
2023/08/14 10:02:59;;;;;;;5.72;4.60;;;27.10;99.90;;;;;;5039696;28;20496;-78
2023/08/14 10:05:30;;;;;;;6.38;4.18;;;27.20;99.90;;;;;;5047067;28;20045;-78
2023/08/14 10:07:58;;;;;;;7.30;3.95;;;27.20;99.90;;;;;;5046982;28;20045;-78
2023/08/14 10:10:29;;;;;;;5.30;3.78;;;27.30;99.90;;;;;;5037400;28;20051;-78
2023/08/14 10:13:01;;;;;;;9.40;3.83;;;27.40;99.90;;;;;;5048445;28;20049;-78
2023/08/14 10:15:32;;;;;;;6.03;4.00;;;27.50;99.90;;;;;;5047382;28;20049;-78
2023/08/14 10:18:03;;;;;;;8.60;3.70;;;27.50;99.90;;;;;;5049698;28;20053;-78
2023/08/14 10:20:34;;;;;;;4.05;3.65;;;27.70;99.90;;;;;;5050285;28;20069;-78
2023/08/14 10:23:02;;;;;;;6.05;3.45;;;27.80;99.90;;;;;;5046177;28;20077;-78
2023/08/14 10:25:29;;;;;;;5.57;3.53;;;27.80;99.90;;;;;;5048372;28;20056;-78
2023/08/14 10:27:56;;;;;;;5.43;3.28;;;27.90;99.90;;;;;;5035193;28;20091;-78
2023/08/14 10:30:24;;;;;;;6.07;2.88;;;28.00;99.90;;;;;;5042202;28;22098;-78
2023/08/14 10:32:52;;;;;;;7.00;3.20;;;28.00;99.90;;;;;;5049483;28;20092;-78
2023/08/14 10:35:23;;;;;;;7.32;3.30;;;28.00;99.90;;;;;;5048546;28;20302;-79
2023/08/14 10:37:52;;;;;;;4.22;2.70;;;28.10;99.90;;;;;;5051243;28;20136;-78
2023/08/14 10:40:34;;;;;;;7.05;3.30;;;28.10;99.90;;;;;;5047051;28;20049;-78
2023/08/14 10:43:01;;;;;;;7.00;3.40;;;28.20;99.90;;;;;;5048163;28;20050;-78
2023/08/14 10:45:28;;;;;;;7.82;3.08;;;28.20;99.90;;;;;;5041639;28;20094;-78
2023/08/14 10:48:00;;;;;;;7.43;2.97;;;28.20;99.90;;;;;;5046803;28;20042;-78
2023/08/14 10:50:30;;;;;;;4.93;2.50;;;28.30;99.90;;;;;;5048868;28;20045;-79
2023/08/14 10:52:57;;;;;;;;;;;28.30;99.90;;;;;;5053932;28;20052;-78
2023/08/14 10:55:34;;;;;;;5.72;2.63;;;28.40;99.90;;;;;;5045228;28;19938;-79
2023/08/14 10:58:01;;;;;;;5.40;2.65;;;28.50;99.90;;;;;;5031987;28;20050;-78
2023/08/14 11:00:28;;;;;;;5.32;2.55;;;28.50;99.90;;;;;;5026521;28;20049;-79
2023/08/14 11:03:06;;;;;;;4.25;2.40;;;28.50;99.90;;;;;;5028765;28;20497;-79
2023/08/14 11:05:37;;;;;;;6.93;2.40;;;28.60;99.90;;;;;;5028540;28;20071;-78
2023/08/14 11:08:10;;;;;;;5.22;2.95;;;28.60;99.90;;;;;;5051562;28;20077;-78
2023/08/14 11:10:38;;;;;;;6.95;2.53;;;28.70;99.90;;;;;;5054575;28;20063;-77
2023/08/14 11:13:09;;;;;;;3.83;2.45;;;28.80;99.90;;;;;;5051910;28;20049;-78
2023/08/14 11:15:38;;;;;;;9.63;2.53;;;28.90;99.90;;;;;;5055736;28;20045;-78
2023/08/14 11:18:06;;;;;;;6.63;2.28;;;28.90;99.90;;;;;;5051490;28;20061;-78
2023/08/14 11:20:33;;;;;;;4.35;2.50;;;29.00;99.90;;;;;;5031038;28;20053;-79
2023/08/14 11:22:59;;;;;;;4.57;2.17;;;29.10;99.90;;;;;;5048307;28;20100;-79
2023/08/14 11:25:27;;;;;;;5.68;2.67;;;29.20;99.90;;;;;;5045124;28;20107;-78
2023/08/14 11:27:55;;;;;;;4.43;1.80;;;29.20;99.90;;;;;;5053496;28;20068;-78
2023/08/14 11:30:25;;;;;;;4.47;2.25;;;29.20;99.90;;;;;;5045374;28;20045;-79
2023/08/14 11:32:53;;;;;;;8.07;2.17;;;29.30;99.90;;;;;;5049451;28;20050;-79
2023/08/14 11:35:20;;;;;;;5.25;2.55;;;29.40;99.90;;;;;;5037130;28;20061;-78
2023/08/14 11:37:48;;;;;;;5.07;2.20;;;29.40;99.90;;;;;;5048807;28;20053;-78
2023/08/14 11:40:18;;;;;;;5.72;2.50;;;29.40;99.90;;;;;;5051523;28;20099;-79
2023/08/14 11:42:44;;;;;;;6.32;2.58;;;29.40;99.90;;;;;;5048854;28;20469;-78
2023/08/14 11:45:11;;;;;;;4.95;2.53;;;29.40;99.90;;;;;;5048616;28;20045;-79
2023/08/14 11:47:47;;;;;;;6.70;3.97;;;29.40;99.90;;;;;;5051334;28;20063;-78
2023/08/14 11:50:15;;;;;;;5.25;2.60;;;29.40;99.90;;;;;;5053929;28;20044;-78
2023/08/14 11:52:43;;;;;;;4.45;2.42;;;29.40;99.90;;;;;;5049539;28;20523;-79
2023/08/14 11:55:10;;;;;;;6.63;2.22;;;29.50;99.90;;;;;;5049112;28;20049;-78
2023/08/14 11:57:38;;;;;;;6.05;2.75;;;29.50;99.90;;;;;;5051455;28;20048;-79
2023/08/14 12:00:14;;;;;;;3.83;2.55;;;29.60;99.90;;;;;;5047884;28;20050;-79
2023/08/14 12:02:53;;;;;;;3.67;2.67;;;29.60;99.90;;;;;;5045525;28;20045;-79
2023/08/14 12:05:21;;;;;;;3.97;2.50;;;29.70;99.90;;;;;;5052235;28;20148;-79
2023/08/14 12:07:47;;;;;;;4.60;2.47;;;29.70;99.90;;;;;;5051431;28;20053;-79
2023/08/14 12:10:15;;;;;;;4.63;2.30;;;29.70;99.90;;;;;;5043506;28;20428;-79
2023/08/14 12:12:42;;;;;;;7.93;3.00;;;29.70;99.90;;;;;;5051609;28;20052;-79
2023/08/14 12:15:21;;;;;;;5.57;2.55;;;29.70;99.90;;;;;;5053692;28;20041;-78
2023/08/14 12:17:50;;;;;;;9.23;2.47;;;29.70;99.90;;;;;;5057979;28;20102;-76
2023/08/14 12:20:17;;;;;;;5.10;2.70;;;29.70;99.90;;;;;;5041391;28;20083;-78
2023/08/14 12:22:44;;;;;;;6.20;3.13;;;29.70;99.90;;;;;;5050370;28;20092;-78
2023/08/14 12:25:28;;;;;;;6.63;2.75;;;29.70;99.90;;;;;;5048319;28;20041;-78
2023/08/14 12:27:55;;;;;;;11.77;2.63;;;29.70;99.90;;;;;;5050090;28;20065;-78
2023/08/14 12:30:22;;;;;;;6.90;2.83;;;29.70;99.90;;;;;;5050339;28;20821;-78
2023/08/14 12:32:49;;;;;;;3.03;2.28;;;29.70;99.90;;;;;;5046338;28;20045;-79
2023/08/14 12:35:16;;;;;;;3.90;2.45;;;29.80;99.90;;;;;;5053310;28;20045;-78
2023/08/14 12:37:42;;;;;;;4.68;2.45;;;29.80;99.90;;;;;;5038466;28;20044;-78
2023/08/14 12:40:10;;;;;;;3.70;2.30;;;29.80;99.90;;;;;;5047169;28;20053;-77
2023/08/14 12:42:38;;;;;;;8.77;2.60;;;29.80;99.90;;;;;;5052262;28;20052;-78
2023/08/14 12:45:05;;;;;;;6.03;3.28;;;29.70;99.90;;;;;;5050290;28;20045;-78
2023/08/14 12:47:32;;;;;;;4.15;2.50;;;29.60;99.90;;;;;;5045346;28;20049;-78